Terminal Aerodrome Forecast
Issued by NWS

Home | Current Version | Previous Version | Text Only | Print | Product List | Glossary On
Versions: 1 2 3 4 5 6 7 8 9 10 11 12 13 14 15
000
FTUS41 KBTV 062320
TAFPBG
TAF
KPBG 062320Z 0700/0724 35007KT P6SM SCT070 BKN120
     FM070300 VRB04KT P6SM BKN070
     FM070500 VRB03KT P6SM BKN045
     FM071300 17007KT P6SM SCT070
     FM072100 17010G16KT P6SM BKN070=

USA.gov is the U.S. government's official web portal to all federal, state and local government web resources and services.